createdAt,value
2024-04-21T00:01:26.364Z,71.64
2024-04-21T00:03:57.004Z,71.35
2024-04-21T00:06:29.084Z,71.48
2024-04-21T00:09:00.058Z,71.46
2024-04-21T00:11:31.809Z,71.39
2024-04-21T00:14:02.610Z,71.21
2024-04-21T00:16:34.521Z,71.00
2024-04-21T00:19:05.016Z,70.81
2024-04-21T00:21:36.479Z,70.89
2024-04-21T00:24:07.201Z,70.91
2024-04-21T00:26:38.858Z,70.89
2024-04-21T00:29:09.373Z,70.85
2024-04-21T00:31:41.548Z,70.99
2024-04-21T00:34:12.510Z,71.18
2024-04-21T00:36:44.895Z,71.25
2024-04-21T00:39:15.269Z,71.12
2024-04-21T00:41:47.233Z,71.13
2024-04-21T00:44:17.667Z,71.24
2024-04-21T00:46:49.383Z,71.18
2024-04-21T00:49:19.950Z,71.21
2024-04-21T00:51:51.739Z,71.05
2024-04-21T00:54:22.541Z,70.95
2024-04-21T00:56:54.401Z,70.94
2024-04-21T00:59:24.839Z,71.01
2024-04-21T01:01:56.923Z,71.10
2024-04-21T01:04:27.407Z,71.21
2024-04-21T01:06:59.197Z,71.30
2024-04-21T01:09:29.814Z,71.42
2024-04-21T01:12:01.628Z,71.35
2024-04-21T01:14:32.095Z,71.46
2024-04-21T01:17:04.644Z,71.44
2024-04-21T01:19:35.103Z,71.45
2024-04-21T01:22:07.318Z,71.44
2024-04-21T01:24:37.795Z,71.29
2024-04-21T01:27:09.557Z,71.40
2024-04-21T01:29:40.087Z,71.18
2024-04-21T01:32:23.647Z,71.19
2024-04-21T01:34:55.466Z,71.32
2024-04-21T01:37:25.899Z,71.35
2024-04-21T01:39:57.986Z,71.35
2024-04-21T01:42:28.593Z,71.41
2024-04-21T01:45:00.556Z,71.43
2024-04-21T01:47:30.992Z,71.65
2024-04-21T01:50:02.767Z,71.57
2024-04-21T01:52:33.275Z,71.67
2024-04-21T01:55:05.373Z,71.67
2024-04-21T01:57:37.267Z,71.60
2024-04-21T02:00:09.363Z,71.56
2024-04-21T02:02:47.300Z,71.56
2024-04-21T02:05:17.815Z,71.64
2024-04-21T02:07:49.339Z,71.56
2024-04-21T02:10:19.972Z,71.64
2024-04-21T02:12:51.756Z,71.71
2024-04-21T02:15:22.172Z,71.81
2024-04-21T02:17:53.952Z,71.75
2024-04-21T02:20:24.754Z,71.67
2024-04-21T02:22:56.403Z,71.70
2024-04-21T02:25:27.617Z,71.76
2024-04-21T02:27:59.934Z,71.65
2024-04-21T02:30:30.668Z,71.58
2024-04-21T02:33:03.270Z,71.58
2024-04-21T02:35:33.774Z,71.58
2024-04-21T02:38:05.517Z,71.87
2024-04-21T02:40:36.149Z,71.79
2024-04-21T02:43:08.126Z,71.97
2024-04-21T02:45:38.758Z,72.01
2024-04-21T02:48:10.510Z,72.04
2024-04-21T02:50:40.715Z,72.05
2024-04-21T02:53:12.684Z,71.85
2024-04-21T02:55:46.693Z,71.64
2024-04-21T02:58:19.152Z,71.71
2024-04-21T03:00:49.580Z,71.57
2024-04-21T03:03:21.537Z,71.25
2024-04-21T03:05:56.707Z,71.31
2024-04-21T03:08:28.655Z,71.27
2024-04-21T03:10:59.261Z,71.28
2024-04-21T03:13:31.082Z,71.31
2024-04-21T03:16:05.578Z,71.33
2024-04-21T03:18:37.421Z,71.51
2024-04-21T03:21:07.856Z,71.55
2024-04-21T03:23:39.908Z,71.57
2024-04-21T03:26:10.332Z,71.60
2024-04-21T03:28:42.006Z,71.49
2024-04-21T03:31:12.556Z,71.54
2024-04-21T03:33:44.176Z,71.51
2024-04-21T03:36:14.707Z,71.45
2024-04-21T03:38:46.570Z,71.38
2024-04-21T03:41:17.083Z,71.48
2024-04-21T03:43:49.252Z,71.40
2024-04-21T03:46:23.179Z,71.40
2024-04-21T03:48:56.595Z,71.51
2024-04-21T03:51:26.996Z,71.40
2024-04-21T03:53:58.753Z,71.52
2024-04-21T03:56:29.069Z,71.44
2024-04-21T03:59:00.824Z,71.46
2024-04-21T04:01:31.419Z,71.52
2024-04-21T04:04:04.192Z,71.54
2024-04-21T04:06:34.671Z,72.06
2024-04-21T04:09:06.549Z,71.36
2024-04-21T04:11:37.437Z,72.08
2024-04-21T04:14:09.224Z,71.80
2024-04-21T04:16:39.749Z,71.25
2024-04-21T04:19:11.669Z,70.81
2024-04-21T04:21:41.932Z,70.79
2024-04-21T04:24:13.796Z,70.71
2024-04-21T04:26:44.232Z,70.66
2024-04-21T04:29:15.801Z,70.79
2024-04-21T04:31:45.990Z,70.94
2024-04-21T04:34:17.859Z,70.78
2024-04-21T04:36:48.685Z,70.66
2024-04-21T04:39:20.758Z,70.89
2024-04-21T04:41:51.290Z,70.81
2024-04-21T04:44:22.936Z,70.35
2024-04-21T04:46:53.370Z,70.31
2024-04-21T04:49:25.198Z,69.92
2024-04-21T04:51:55.777Z,69.97
2024-04-21T04:54:27.518Z,69.97
2024-04-21T04:56:58.247Z,69.97
2024-04-21T04:59:30.106Z,69.58
2024-04-21T05:02:00.589Z,69.14
2024-04-21T05:04:32.863Z,69.11
2024-04-21T05:07:03.350Z,68.83
2024-04-21T05:09:35.396Z,68.79
2024-04-21T05:12:06.239Z,68.57
2024-04-21T05:14:38.047Z,67.88
2024-04-21T05:17:08.553Z,68.07
2024-04-21T05:19:40.576Z,68.10
2024-04-21T05:22:11.030Z,67.93
2024-04-21T05:24:42.985Z,67.36
2024-04-21T05:27:14.976Z,67.43
2024-04-21T05:29:48.118Z,67.13
2024-04-21T05:32:18.610Z,67.23
2024-04-21T05:34:50.320Z,67.40
2024-04-21T05:37:20.768Z,67.71
2024-04-21T05:39:52.634Z,67.45
2024-04-21T05:42:23.118Z,67.06
2024-04-21T05:44:54.672Z,66.92
2024-04-21T05:47:25.133Z,66.82
2024-04-21T05:49:56.957Z,66.99
2024-04-21T05:52:27.447Z,67.46
2024-04-21T05:54:59.191Z,67.33
2024-04-21T05:57:29.676Z,67.16
2024-04-21T06:00:01.963Z,66.44
2024-04-21T06:02:37.078Z,66.38
2024-04-21T06:05:07.747Z,66.36
2024-04-21T06:07:39.461Z,66.35
2024-04-21T06:10:10.371Z,66.33
2024-04-21T06:12:42.366Z,66.32
2024-04-21T06:15:12.688Z,66.57
2024-04-21T06:17:44.514Z,65.68
2024-04-21T06:20:15.173Z,64.90
2024-04-21T06:22:46.934Z,64.72
2024-04-21T06:25:17.418Z,64.35
2024-04-21T06:27:49.267Z,63.91
2024-04-21T06:30:19.850Z,63.54
2024-04-21T06:32:52.072Z,63.77
2024-04-21T06:35:22.444Z,64.01
2024-04-21T06:37:54.205Z,64.00
2024-04-21T06:40:24.885Z,63.17
2024-04-21T06:42:57.131Z,62.67
2024-04-21T06:45:28.045Z,62.41
2024-04-21T06:47:59.859Z,62.65
2024-04-21T06:50:33.579Z,61.72
2024-04-21T06:53:06.159Z,61.54
2024-04-21T06:55:36.611Z,62.69
2024-04-21T06:58:08.816Z,63.62
2024-04-21T07:00:40.942Z,62.98
2024-04-21T07:03:13.116Z,60.29
2024-04-21T07:05:43.633Z,59.83
2024-04-21T07:08:15.404Z,60.45
2024-04-21T07:10:45.946Z,59.42
2024-04-21T07:13:17.807Z,58.92
2024-04-21T07:15:48.249Z,58.53
2024-04-21T07:18:20.068Z,57.86
2024-04-21T07:20:50.700Z,57.73
2024-04-21T07:23:22.357Z,57.73
2024-04-21T07:25:53.254Z,57.11
2024-04-21T07:28:25.645Z,56.06
2024-04-21T07:30:56.130Z,55.60
2024-04-21T07:33:27.742Z,55.58
2024-04-21T07:35:58.165Z,55.08
2024-04-21T07:38:29.823Z,53.54
2024-04-21T07:41:00.356Z,52.49
2024-04-21T07:43:32.106Z,52.98
2024-04-21T07:46:03.625Z,52.36
2024-04-21T07:48:35.350Z,51.43
2024-04-21T07:51:05.846Z,52.44
2024-04-21T07:53:37.402Z,51.72
2024-04-21T07:56:08.029Z,52.85
2024-04-21T07:58:39.796Z,52.56
2024-04-21T08:01:10.430Z,52.33
2024-04-21T08:03:42.196Z,51.66
2024-04-21T08:06:13.005Z,51.67
2024-04-21T08:08:46.891Z,51.93
2024-04-21T08:11:20.755Z,52.06
2024-04-21T08:13:52.276Z,51.35
2024-04-21T08:16:24.107Z,51.48
2024-04-21T08:18:55.011Z,51.29
2024-04-21T08:21:26.837Z,51.34
2024-04-21T08:23:57.266Z,52.16
2024-04-21T08:26:29.025Z,52.34
2024-04-21T08:28:59.444Z,54.11
2024-04-21T08:31:31.570Z,53.04
2024-04-21T08:34:02.143Z,52.66
2024-04-21T08:36:34.003Z,52.91
2024-04-21T08:39:05.800Z,53.05
2024-04-21T08:41:41.095Z,53.69
2024-04-21T08:44:14.630Z,53.96
2024-04-21T08:46:45.122Z,54.10
2024-04-21T08:49:17.426Z,53.83
2024-04-21T08:51:47.921Z,54.51
2024-04-21T08:54:20.002Z,54.36
2024-04-21T08:56:52.214Z,54.06
2024-04-21T08:59:24.947Z,54.83
2024-04-21T09:01:56.308Z,54.39
2024-04-21T09:04:28.793Z,55.06
2024-04-21T09:06:59.343Z,54.95
2024-04-21T09:09:31.663Z,55.15
2024-04-21T09:12:02.282Z,55.75
2024-04-21T09:14:44.492Z,56.14
2024-04-21T09:17:16.570Z,56.14
2024-04-21T09:19:47.074Z,56.43
2024-04-21T09:22:18.757Z,57.16
2024-04-21T09:24:49.394Z,56.99
2024-04-21T09:27:21.020Z,57.07
2024-04-21T09:29:51.445Z,56.97
2024-04-21T09:32:23.138Z,56.41
2024-04-21T09:34:57.112Z,56.60
2024-04-21T09:37:28.688Z,55.94
2024-04-21T09:39:59.597Z,56.62
2024-04-21T09:42:32.627Z,56.06
2024-04-21T09:45:03.078Z,56.36
2024-04-21T09:47:35.098Z,56.80
2024-04-21T09:50:08.920Z,56.89
2024-04-21T09:52:48.441Z,57.16
2024-04-21T09:55:20.535Z,56.67
2024-04-21T09:58:02.151Z,56.71
2024-04-21T10:00:34.554Z,56.38
2024-04-21T10:03:06.264Z,56.52
2024-04-21T10:05:38.377Z,56.57
2024-04-21T10:08:08.832Z,56.88
2024-04-21T10:10:40.586Z,56.90
2024-04-21T10:13:11.110Z,56.36
2024-04-21T10:15:42.954Z,56.25
2024-04-21T10:18:25.016Z,56.13
2024-04-21T10:20:57.622Z,56.08
2024-04-21T10:23:28.261Z,55.81
2024-04-21T10:25:59.927Z,55.74
2024-04-21T10:28:30.704Z,55.96
2024-04-21T10:31:05.551Z,56.19
2024-04-21T10:33:45.122Z,56.37
2024-04-21T10:36:20.962Z,56.87
2024-04-21T10:38:56.868Z,57.27
2024-04-21T10:41:28.476Z,57.14
2024-04-21T10:43:58.721Z,57.71
2024-04-21T10:46:30.660Z,57.45
2024-04-21T10:49:01.324Z,58.00
2024-04-21T10:51:33.913Z,58.21
2024-04-21T10:54:04.597Z,58.36
2024-04-21T10:56:37.637Z,58.91
2024-04-21T10:59:09.140Z,58.57
2024-04-21T11:01:40.814Z,58.98
2024-04-21T11:04:11.353Z,59.40
2024-04-21T11:06:43.076Z,59.36
2024-04-21T11:09:13.922Z,59.86
2024-04-21T11:11:45.472Z,60.46
2024-04-21T11:14:16.214Z,60.43
2024-04-21T11:16:54.055Z,60.28
2024-04-21T11:19:25.800Z,59.90
2024-04-21T11:21:56.526Z,60.04
2024-04-21T11:24:28.349Z,59.85
2024-04-21T11:27:00.036Z,59.89
2024-04-21T11:29:34.530Z,59.60
2024-04-21T11:32:10.389Z,58.71
2024-04-21T11:34:45.380Z,58.83
2024-04-21T11:37:20.239Z,58.79
2024-04-21T11:39:52.094Z,58.56
2024-04-21T11:42:22.738Z,59.13
2024-04-21T11:44:53.874Z,58.78
2024-04-21T11:47:24.574Z,58.66
2024-04-21T11:49:56.478Z,58.68
2024-04-21T11:52:27.049Z,59.30
2024-04-21T11:54:58.905Z,58.74
2024-04-21T11:57:29.604Z,58.75
2024-04-21T12:00:03.230Z,58.24
2024-04-21T12:02:37.523Z,57.79
2024-04-21T12:05:08.267Z,58.26
2024-04-21T12:07:40.215Z,58.45
2024-04-21T12:10:11.076Z,58.01
2024-04-21T12:12:44.029Z,58.36
2024-04-21T12:15:14.874Z,58.58
2024-04-21T12:17:46.744Z,58.65
2024-04-21T12:20:17.250Z,58.55
2024-04-21T12:22:50.649Z,58.89
2024-04-21T12:25:21.451Z,59.00
2024-04-21T12:27:53.637Z,59.07
2024-04-21T12:30:24.293Z,59.32
2024-04-21T12:32:56.575Z,59.13
2024-04-21T12:35:27.099Z,58.70
2024-04-21T12:37:59.045Z,59.48
2024-04-21T12:40:29.492Z,59.81
2024-04-21T12:43:01.373Z,59.64
2024-04-21T12:45:32.079Z,59.64
2024-04-21T12:48:05.410Z,59.64
2024-04-21T12:50:35.981Z,60.33
2024-04-21T12:53:08.789Z,60.26
2024-04-21T12:55:40.170Z,60.35
2024-04-21T12:58:12.456Z,60.43
2024-04-21T13:00:43.130Z,60.60
2024-04-21T13:03:16.016Z,60.66
2024-04-21T13:05:46.634Z,60.54
2024-04-21T13:08:19.187Z,60.28
2024-04-21T13:10:50.108Z,60.67
2024-04-21T13:13:21.937Z,60.22
2024-04-21T13:15:52.851Z,59.88
2024-04-21T13:18:24.837Z,59.69
2024-04-21T13:20:55.435Z,59.97
2024-04-21T13:23:27.307Z,60.02
2024-04-21T13:25:57.828Z,59.99
2024-04-21T13:28:29.794Z,60.55
2024-04-21T13:31:01.011Z,60.68
2024-04-21T13:33:32.844Z,61.12
2024-04-21T13:36:04.035Z,60.85
2024-04-21T13:38:36.314Z,60.78
2024-04-21T13:41:07.038Z,60.92
2024-04-21T13:43:38.917Z,61.16
2024-04-21T13:46:09.488Z,61.15
2024-04-21T13:48:41.286Z,61.58
2024-04-21T13:51:20.363Z,61.48
2024-04-21T13:54:03.534Z,61.33
2024-04-21T13:56:36.640Z,60.31
2024-04-21T13:59:07.569Z,60.48
2024-04-21T14:01:39.459Z,61.34
2024-04-21T14:04:12.098Z,61.19
2024-04-21T14:06:44.075Z,60.47
2024-04-21T14:09:14.510Z,60.71
2024-04-21T14:11:46.160Z,61.26
2024-04-21T14:14:16.788Z,61.47
2024-04-21T14:16:48.905Z,61.58
2024-04-21T14:19:19.915Z,61.32
2024-04-21T14:21:51.443Z,60.10
2024-04-21T14:24:21.966Z,59.87
2024-04-21T14:26:53.937Z,59.99
2024-04-21T14:29:24.454Z,59.32
2024-04-21T14:31:56.207Z,59.24
2024-04-21T14:34:26.662Z,58.99
2024-04-21T14:36:58.431Z,59.14
2024-04-21T14:39:28.825Z,58.92
2024-04-21T14:42:02.109Z,58.70
2024-04-21T14:44:36.550Z,58.73
2024-04-21T14:47:08.770Z,59.32
2024-04-21T14:49:39.473Z,59.38
2024-04-21T14:52:11.281Z,59.05
2024-04-21T14:54:41.825Z,59.16
2024-04-21T14:57:14.710Z,60.00
2024-04-21T14:59:45.235Z,60.34
2024-04-21T15:02:17.266Z,60.42
2024-04-21T15:04:47.848Z,60.39
2024-04-21T15:07:19.899Z,60.48
2024-04-21T15:09:50.320Z,60.87
2024-04-21T15:12:22.290Z,60.58
2024-04-21T15:14:52.710Z,60.54
2024-04-21T15:17:24.693Z,60.63
2024-04-21T15:19:56.050Z,60.65
2024-04-21T15:22:28.896Z,61.23
2024-04-21T15:24:59.560Z,61.11
2024-04-21T15:27:31.393Z,60.97
2024-04-21T15:30:02.466Z,60.97
2024-04-21T15:32:34.216Z,61.20
2024-04-21T15:35:05.152Z,61.29
2024-04-21T15:37:39.800Z,61.37
2024-04-21T15:40:13.830Z,60.88
2024-04-21T15:42:44.606Z,61.28
2024-04-21T15:45:17.816Z,61.95
2024-04-21T15:47:48.500Z,62.20
2024-04-21T15:50:20.584Z,62.31
2024-04-21T15:52:54.105Z,62.63
2024-04-21T15:55:29.162Z,62.91
2024-04-21T15:58:01.360Z,63.02
2024-04-21T16:00:34.770Z,62.93
2024-04-21T16:03:06.603Z,63.43
2024-04-21T16:05:37.382Z,63.64
2024-04-21T16:08:09.451Z,63.91
2024-04-21T16:10:42.511Z,64.24
2024-04-21T16:13:14.637Z,64.25
2024-04-21T16:15:45.877Z,64.44
2024-04-21T16:18:17.696Z,64.79
2024-04-21T16:20:48.345Z,65.52
2024-04-21T16:23:20.318Z,65.49
2024-04-21T16:25:50.938Z,65.88
2024-04-21T16:28:22.772Z,65.85
2024-04-21T16:30:53.409Z,66.22
2024-04-21T16:33:25.837Z,66.37
2024-04-21T16:35:58.437Z,66.28
2024-04-21T16:38:30.610Z,66.38
2024-04-21T16:41:01.285Z,66.94
2024-04-21T16:43:35.041Z,67.10
2024-04-21T16:46:06.249Z,67.37
2024-04-21T16:48:38.450Z,67.47
2024-04-21T16:51:09.565Z,67.76
2024-04-21T16:53:42.069Z,67.51
2024-04-21T16:56:12.728Z,67.78
2024-04-21T16:58:44.930Z,67.81
2024-04-21T17:01:15.889Z,67.73
2024-04-21T17:03:48.449Z,67.81
2024-04-21T17:06:20.308Z,68.16
2024-04-21T17:08:52.398Z,68.56
2024-04-21T17:11:23.300Z,68.63
2024-04-21T17:13:55.351Z,68.78
2024-04-21T17:16:25.791Z,68.85
2024-04-21T17:18:57.572Z,69.05
2024-04-21T17:21:28.066Z,69.27
2024-04-21T17:23:59.812Z,69.12
2024-04-21T17:26:30.246Z,69.05
2024-04-21T17:29:02.165Z,69.18
2024-04-21T17:31:32.565Z,69.46
2024-04-21T17:34:04.311Z,69.26
2024-04-21T17:36:35.336Z,69.30
2024-04-21T17:39:07.272Z,69.57
2024-04-21T17:41:38.322Z,69.73
2024-04-21T17:44:10.087Z,69.54
2024-04-21T17:46:50.676Z,69.75
2024-04-21T17:49:22.596Z,69.97
2024-04-21T17:51:53.029Z,69.83
2024-04-21T17:54:25.302Z,69.57
2024-04-21T17:56:57.731Z,69.73
2024-04-21T17:59:29.946Z,69.69
2024-04-21T18:02:00.359Z,69.78
2024-04-21T18:04:32.014Z,69.92
2024-04-21T18:07:02.730Z,70.18
2024-04-21T18:09:34.626Z,70.00
2024-04-21T18:12:05.539Z,70.21
2024-04-21T18:14:37.318Z,70.07
2024-04-21T18:17:13.984Z,70.25
2024-04-21T18:19:54.129Z,70.20
2024-04-21T18:22:24.594Z,70.24
2024-04-21T18:24:56.321Z,70.19
2024-04-21T18:27:26.871Z,70.28
2024-04-21T18:29:59.009Z,70.33
2024-04-21T18:32:29.635Z,70.07
2024-04-21T18:35:01.509Z,69.95
2024-04-21T18:37:31.963Z,70.08
2024-04-21T18:40:06.489Z,70.39
2024-04-21T18:42:39.439Z,70.56
2024-04-21T18:45:11.049Z,70.42
2024-04-21T18:47:42.871Z,70.45
2024-04-21T18:50:13.383Z,70.51
2024-04-21T18:52:45.176Z,70.57
2024-04-21T18:55:15.876Z,70.73
2024-04-21T18:57:47.629Z,70.59
2024-04-21T19:00:18.482Z,70.60
2024-04-21T19:02:52.629Z,70.48
2024-04-21T19:05:23.223Z,70.69
2024-04-21T19:07:54.961Z,70.57
2024-04-21T19:10:27.801Z,70.77
2024-04-21T19:13:00.264Z,70.71
2024-04-21T19:15:31.161Z,70.66
2024-04-21T19:18:03.474Z,70.72
2024-04-21T19:20:34.469Z,70.61
2024-04-21T19:23:10.116Z,70.64
2024-04-21T19:25:41.888Z,70.58
2024-04-21T19:28:12.320Z,70.82
2024-04-21T19:30:43.957Z,70.66
2024-04-21T19:33:14.608Z,70.45
2024-04-21T19:35:46.354Z,70.50
2024-04-21T19:38:16.874Z,70.60
2024-04-21T19:40:51.592Z,70.56
2024-04-21T19:43:24.744Z,70.33
2024-04-21T19:45:57.885Z,70.40
2024-04-21T19:48:29.792Z,70.36
2024-04-21T19:51:01.190Z,70.27
2024-04-21T19:53:33.159Z,70.12
2024-04-21T19:56:09.039Z,70.16
2024-04-21T19:58:41.609Z,70.11
2024-04-21T20:01:12.578Z,70.10
2024-04-21T20:03:44.967Z,69.97
2024-04-21T20:06:15.523Z,70.13
2024-04-21T20:08:49.164Z,70.11
2024-04-21T20:11:22.287Z,70.01
2024-04-21T20:13:54.180Z,69.92
2024-04-21T20:16:43.512Z,70.04
2024-04-21T20:19:15.552Z,69.75
2024-04-21T20:21:46.240Z,69.72
2024-04-21T20:24:18.004Z,69.88
2024-04-21T20:26:51.008Z,70.10
2024-04-21T20:29:23.971Z,69.63
2024-04-21T20:31:54.393Z,69.61
2024-04-21T20:34:26.449Z,69.67
2024-04-21T20:36:56.991Z,69.68
2024-04-21T20:39:29.571Z,69.70
2024-04-21T20:41:59.884Z,69.49
2024-04-21T20:44:31.950Z,69.65
2024-04-21T20:47:02.479Z,69.70
2024-04-21T20:49:34.679Z,69.89
2024-04-21T20:52:05.588Z,69.93
2024-04-21T20:54:37.453Z,69.83
2024-04-21T20:57:07.780Z,69.92
2024-04-21T20:59:39.530Z,69.92
2024-04-21T21:02:10.080Z,69.86
2024-04-21T21:04:42.007Z,69.83
2024-04-21T21:07:12.785Z,69.91
2024-04-21T21:09:45.037Z,69.92
2024-04-21T21:12:15.655Z,70.18
2024-04-21T21:14:47.299Z,70.20
2024-04-21T21:17:18.410Z,70.27
2024-04-21T21:19:50.214Z,70.31
2024-04-21T21:22:20.769Z,70.30
2024-04-21T21:24:52.503Z,70.30
2024-04-21T21:27:23.122Z,70.00
2024-04-21T21:29:54.682Z,69.50
2024-04-21T21:32:25.183Z,68.69
2024-04-21T21:34:56.965Z,68.32
2024-04-21T21:37:27.521Z,68.14
2024-04-21T21:39:59.347Z,68.12
2024-04-21T21:42:29.888Z,67.80
2024-04-21T21:45:01.551Z,67.77
2024-04-21T21:47:32.160Z,67.75
2024-04-21T21:50:04.355Z,67.70
2024-04-21T21:52:37.690Z,67.67
2024-04-21T21:55:09.601Z,67.49
2024-04-21T21:57:40.297Z,67.47
2024-04-21T22:00:13.401Z,67.26
2024-04-21T22:02:43.857Z,67.06
2024-04-21T22:05:15.690Z,66.68
2024-04-21T22:07:46.219Z,66.59
2024-04-21T22:10:18.310Z,65.95
2024-04-21T22:12:48.919Z,66.13
2024-04-21T22:15:21.803Z,66.06
2024-04-21T22:17:52.356Z,65.88
2024-04-21T22:20:24.192Z,65.94
2024-04-21T22:22:54.618Z,66.20
2024-04-21T22:25:26.529Z,66.40
2024-04-21T22:27:56.898Z,66.48
2024-04-21T22:30:28.552Z,66.75
2024-04-21T22:32:59.332Z,66.66
2024-04-21T22:35:31.254Z,66.34
2024-04-21T22:38:01.608Z,66.62
2024-04-21T22:40:33.364Z,66.68
2024-04-21T22:43:04.430Z,66.81
2024-04-21T22:45:36.134Z,66.91
2024-04-21T22:48:07.276Z,66.93
2024-04-21T22:50:39.035Z,66.85
2024-04-21T22:53:09.871Z,66.72
2024-04-21T22:55:41.678Z,66.66
2024-04-21T22:58:12.296Z,66.51
2024-04-21T23:00:44.941Z,66.39
2024-04-21T23:03:15.370Z,66.51
2024-04-21T23:05:47.309Z,66.47
2024-04-21T23:08:17.751Z,66.50
2024-04-21T23:10:58.364Z,66.68
2024-04-21T23:13:30.420Z,66.91
2024-04-21T23:16:05.442Z,67.09
2024-04-21T23:18:37.333Z,67.19
2024-04-21T23:21:07.902Z,66.93
2024-04-21T23:23:40.581Z,66.98
2024-04-21T23:26:11.007Z,66.86
2024-04-21T23:28:42.904Z,66.73
2024-04-21T23:31:17.153Z,66.34
2024-04-21T23:33:49.324Z,66.08
2024-04-21T23:36:19.980Z,66.29
2024-04-21T23:38:51.938Z,66.46
2024-04-21T23:41:22.371Z,66.56
2024-04-21T23:43:54.627Z,66.65
2024-04-21T23:46:25.216Z,66.74
2024-04-21T23:48:56.931Z,66.88
2024-04-21T23:51:27.457Z,66.97
2024-04-21T23:53:59.122Z,67.23
2024-04-21T23:56:29.632Z,67.31
2024-04-21T23:59:01.607Z,67.54
